createdAt,value
2019-06-15T07:08:50.341Z,31.30
2019-06-15T07:15:50.998Z,31.60
2019-06-15T07:18:25.841Z,32.70
2019-06-15T07:21:09.561Z,33.70
2019-06-15T07:23:42.547Z,32.50
2019-06-15T07:29:10.728Z,32.00
2019-06-15T07:39:36.136Z,33.30
2019-06-15T07:47:38.030Z,32.00
2019-06-15T07:49:37.749Z,32.60
2019-06-15T07:56:18.409Z,34.20
2019-06-15T07:59:29.472Z,33.80
2019-06-15T08:18:51.853Z,32.30
2019-06-15T08:21:43.770Z,32.50
2019-06-15T08:24:15.737Z,32.70
2019-06-15T08:31:51.293Z,35.70
2019-06-15T08:46:17.037Z,35.10
2019-06-15T08:49:08.621Z,34.80
2019-06-15T08:52:32.678Z,34.20
2019-06-15T08:58:19.873Z,34.70
2019-06-15T09:00:53.661Z,34.30
2019-06-15T09:08:25.212Z,35.60
2019-06-15T09:15:05.411Z,34.70
2019-06-15T09:18:06.658Z,36.00
2019-06-15T09:20:42.091Z,36.20
2019-06-15T09:23:22.166Z,35.30
2019-06-15T09:30:06.559Z,36.40
2019-06-15T09:33:11.855Z,35.20
2019-06-15T09:36:09.437Z,35.40
2019-06-15T09:41:43.146Z,34.80
2019-06-15T09:50:42.304Z,34.60
2019-06-15T09:53:13.533Z,34.10
2019-06-15T09:55:59.470Z,34.10
2019-06-15T09:58:54.651Z,34.00
2019-06-15T10:01:25.273Z,34.90
2019-06-15T10:03:57.763Z,34.20
2019-06-15T10:06:29.336Z,34.10
2019-06-15T10:09:03.409Z,34.30
2019-06-15T10:11:36.849Z,34.20
2019-06-15T10:17:08.844Z,33.30
2019-06-15T10:25:33.652Z,33.50
2019-06-15T10:28:06.917Z,33.40
2019-06-15T10:34:32.997Z,33.60
2019-06-15T10:48:48.404Z,34.40
2019-06-15T10:51:55.574Z,34.80
2019-06-15T10:58:35.707Z,34.40
2019-06-15T11:02:16.748Z,34.70
2019-06-15T11:04:50.282Z,35.10
2019-06-15T11:14:46.324Z,34.30
2019-06-15T11:21:55.360Z,34.60
2019-06-15T11:24:46.687Z,34.30
2019-06-15T11:27:42.461Z,34.20
2019-06-15T11:31:09.410Z,34.80
2019-06-15T11:33:39.595Z,34.50
2019-06-15T11:40:24.583Z,34.50
2019-06-15T11:43:02.443Z,34.30
2019-06-15T11:46:03.191Z,34.40
2019-06-15T11:48:42.907Z,34.50
2019-06-15T11:51:20.869Z,34.60
2019-06-15T11:57:11.973Z,34.90
2019-06-15T12:03:39.054Z,35.20
2019-06-15T12:06:59.327Z,35.30
2019-06-15T12:37:05.752Z,35.40
2019-06-15T12:40:13.426Z,35.30
2019-06-15T12:57:29.701Z,35.20
2019-06-15T13:06:47.424Z,35.00
2019-06-15T13:09:33.945Z,34.90
2019-06-15T13:36:03.556Z,35.20
2019-06-15T13:38:34.439Z,35.20
2019-06-15T13:41:04.214Z,35.10
2019-06-15T13:43:36.342Z,35.40
2019-06-15T13:46:07.003Z,35.40
2019-06-15T13:48:38.251Z,35.50
2019-06-15T13:51:28.531Z,35.30
2019-06-15T13:54:04.093Z,35.30
2019-06-15T13:56:37.201Z,35.40
2019-06-15T13:59:06.948Z,35.50
2019-06-15T14:01:44.981Z,35.30
2019-06-15T14:04:22.352Z,35.40
2019-06-15T14:13:39.392Z,35.00
2019-06-15T14:16:13.495Z,34.90
2019-06-15T14:18:50.986Z,35.00
2019-06-15T14:21:53.847Z,35.20
2019-06-15T14:24:24.478Z,35.50
2019-06-15T14:27:00.388Z,34.90
2019-06-15T14:29:34.011Z,34.50
2019-06-15T14:32:07.882Z,34.60
2019-06-15T14:34:38.499Z,34.70
2019-06-15T14:37:24.663Z,34.70
2019-06-15T14:39:54.402Z,34.60
2019-06-15T14:42:24.063Z,34.30
2019-06-15T14:44:53.913Z,34.30
2019-06-15T14:47:25.360Z,34.10
2019-06-15T14:49:56.301Z,33.70
2019-06-15T14:52:29.415Z,33.50
2019-06-15T14:54:59.067Z,33.60
2019-06-15T14:57:28.827Z,33.60
2019-06-15T15:00:04.713Z,33.50
2019-06-15T15:02:29.865Z,33.50
2019-06-15T15:04:59.536Z,33.50
2019-06-15T15:07:36.750Z,33.70
2019-06-15T15:10:07.234Z,33.60
2019-06-15T15:12:41.441Z,33.30
2019-06-15T15:15:11.653Z,33.30
2019-06-15T15:17:41.242Z,33.10
2019-06-15T15:20:11.086Z,33.00
2019-06-15T15:22:46.539Z,33.10
2019-06-15T15:25:16.980Z,32.90
2019-06-15T15:27:47.018Z,32.80
2019-06-15T15:30:27.125Z,33.00
2019-06-15T15:32:57.145Z,33.00
2019-06-15T15:35:27.402Z,32.60
2019-06-15T15:37:57.244Z,32.40
2019-06-15T15:40:27.364Z,32.50
2019-06-15T15:43:03.631Z,32.30
2019-06-15T15:45:36.767Z,32.20
2019-06-15T15:48:06.799Z,32.10
2019-06-15T15:50:37.294Z,31.50
2019-06-15T15:53:09.665Z,30.90
2019-06-15T15:55:43.861Z,30.30
2019-06-15T15:58:13.810Z,29.70
2019-06-15T16:00:43.489Z,29.30
2019-06-15T16:03:15.995Z,29.50
2019-06-15T16:05:48.858Z,29.40
2019-06-15T16:08:28.731Z,29.40
2019-06-15T16:14:18.927Z,28.20
2019-06-15T16:16:57.185Z,27.40
2019-06-15T16:19:49.647Z,26.90
2019-06-15T16:22:21.677Z,25.10
2019-06-15T16:24:56.431Z,24.40
2019-06-15T16:27:36.874Z,24.20
2019-06-15T16:30:07.735Z,24.10
2019-06-15T16:32:41.171Z,24.00
2019-06-15T16:35:16.608Z,24.00
2019-06-15T16:41:09.780Z,23.50
2019-06-15T16:54:27.181Z,22.00
2019-06-15T16:56:57.165Z,21.80
2019-06-15T16:59:41.448Z,21.30
2019-06-15T17:02:11.106Z,21.10
2019-06-15T17:04:46.548Z,20.80
2019-06-15T17:07:17.885Z,20.90
2019-06-15T17:09:47.485Z,21.10
2019-06-15T17:12:17.204Z,21.50
2019-06-15T17:14:46.897Z,21.70
2019-06-15T17:17:17.348Z,21.80
2019-06-15T17:19:48.330Z,21.80
2019-06-15T17:22:21.482Z,21.90
2019-06-15T17:24:51.426Z,22.00
2019-06-15T17:27:21.163Z,22.20
2019-06-15T17:29:51.004Z,22.50
2019-06-15T17:32:20.623Z,22.90
2019-06-15T17:34:50.274Z,23.00
2019-06-15T17:37:19.964Z,22.90
2019-06-15T17:39:49.534Z,22.90
2019-06-15T17:42:19.189Z,23.50
2019-06-15T17:44:48.759Z,23.50
2019-06-15T17:47:18.438Z,23.60
2019-06-15T17:49:48.006Z,23.60
2019-06-15T17:52:17.717Z,23.40
2019-06-15T17:54:47.652Z,22.70
2019-06-15T17:57:17.255Z,22.50
2019-06-15T17:59:47.151Z,22.50
2019-06-15T18:02:17.304Z,22.50
2019-06-15T18:04:47.531Z,22.40
2019-06-15T18:07:17.369Z,22.20
2019-06-15T18:09:48.577Z,22.20
2019-06-15T18:12:28.265Z,22.20
2019-06-15T18:15:00.169Z,22.20
2019-06-15T18:17:31.462Z,22.00
2019-06-15T18:20:01.967Z,22.10
2019-06-15T18:22:33.284Z,22.20
2019-06-15T18:25:02.894Z,22.00
2019-06-15T18:27:32.478Z,21.80
2019-06-15T18:30:02.117Z,21.90
2019-06-15T18:32:31.790Z,22.30
2019-06-15T18:35:01.372Z,22.40
2019-06-15T18:37:30.932Z,22.20
2019-06-15T18:40:00.525Z,22.00
2019-06-15T18:42:30.128Z,22.10
2019-06-15T18:44:59.738Z,22.00
2019-06-15T18:47:30.427Z,21.90
2019-06-15T18:50:00.056Z,21.90
2019-06-15T18:52:30.447Z,22.00
2019-06-15T18:55:00.047Z,22.00
2019-06-15T18:57:29.602Z,21.70
2019-06-15T18:59:59.235Z,21.70
2019-06-15T19:02:36.115Z,21.60
2019-06-15T19:05:06.542Z,21.60
2019-06-15T19:07:38.097Z,21.70
2019-06-15T19:13:51.919Z,21.80
2019-06-15T19:16:24.684Z,21.80
2019-06-15T19:18:59.038Z,21.80
2019-06-15T19:21:59.530Z,21.80
2019-06-15T19:25:16.125Z,21.90
2019-06-15T19:28:33.175Z,22.00
2019-06-15T19:43:06.458Z,22.30
2019-06-15T19:45:37.113Z,22.40
2019-06-15T19:48:11.736Z,22.50
2019-06-15T19:50:42.331Z,22.40
2019-06-15T19:53:30.858Z,22.50
2019-06-15T20:05:03.765Z,22.30
2019-06-15T20:07:36.688Z,22.10
2019-06-15T20:10:10.593Z,22.50
2019-06-15T20:12:46.609Z,22.60
2019-06-15T20:15:16.931Z,22.60
2019-06-15T20:17:49.156Z,22.50
2019-06-15T20:20:18.857Z,22.30
2019-06-15T20:22:49.475Z,22.20
2019-06-15T20:25:58.909Z,22.20
2019-06-15T20:28:56.427Z,22.20
2019-06-15T20:31:47.037Z,22.00
2019-06-15T20:35:16.169Z,21.90
2019-06-15T20:37:31.949Z,22.10
2019-06-15T20:40:23.143Z,21.80
2019-06-15T20:43:13.460Z,21.40
2019-06-15T20:46:48.629Z,21.20
2019-06-15T21:12:46.895Z,20.20
2019-06-15T21:15:19.130Z,19.90
2019-06-15T21:17:50.715Z,20.20
2019-06-15T21:20:21.998Z,20.80
2019-06-15T21:22:51.803Z,21.10
2019-06-15T21:25:22.279Z,20.80
2019-06-15T21:27:52.011Z,21.00
2019-06-15T21:30:40.728Z,20.90
2019-06-15T21:33:10.497Z,20.50
2019-06-15T21:35:59.658Z,20.20
2019-06-15T21:41:38.132Z,20.50
2019-06-15T21:44:07.779Z,20.30
2019-06-15T21:46:37.482Z,20.50
2019-06-15T21:49:10.326Z,20.80
2019-06-15T21:51:56.466Z,21.10
2019-06-15T21:54:57.446Z,20.60
2019-06-15T21:57:28.527Z,20.40
2019-06-15T21:59:59.047Z,20.50
2019-06-15T22:02:28.910Z,20.80
2019-06-15T22:04:58.724Z,20.80
2019-06-15T22:08:41.119Z,20.80
2019-06-15T22:11:10.851Z,20.80
2019-06-15T22:16:53.130Z,20.70
2019-06-15T22:19:26.049Z,20.60
2019-06-15T22:21:55.069Z,20.40
2019-06-15T22:24:26.797Z,20.40
2019-06-15T22:26:56.394Z,20.40
2019-06-15T22:29:27.417Z,20.60
2019-06-15T22:32:12.615Z,20.70
2019-06-15T22:34:46.906Z,20.60
